createdAt,value
2018-12-05T00:01:27.692Z,5.80
2018-12-05T00:04:06.682Z,4.77
2018-12-05T00:06:45.588Z,6.23
2018-12-05T00:09:24.529Z,6.43
2018-12-05T00:12:04.028Z,6.07
2018-12-05T00:14:43.123Z,6.97
2018-12-05T00:17:22.006Z,7.17
2018-12-05T00:20:04.803Z,6.73
2018-12-05T00:22:43.940Z,7.83
2018-12-05T00:25:22.914Z,7.57
2018-12-05T00:28:02.102Z,6.30
2018-12-05T00:30:41.107Z,7.33
2018-12-05T00:33:20.141Z,7.07
2018-12-05T00:36:00.066Z,5.97
2018-12-05T00:38:38.943Z,6.00
2018-12-05T00:41:18.135Z,6.80
2018-12-05T00:43:58.466Z,8.30
2018-12-05T00:46:37.972Z,7.47
2018-12-05T00:49:17.966Z,6.93
2018-12-05T00:51:56.742Z,6.80
2018-12-05T00:54:36.844Z,7.27
2018-12-05T01:02:17.760Z,7.83
2018-12-05T01:04:56.790Z,7.67
2018-12-05T01:07:36.066Z,7.87
2018-12-05T01:10:15.603Z,8.67
2018-12-05T01:12:55.149Z,7.67
2018-12-05T01:15:33.939Z,10.20
2018-12-05T01:18:12.550Z,7.37
2018-12-05T01:20:51.798Z,5.97
2018-12-05T01:23:30.558Z,5.13
2018-12-05T01:26:09.210Z,5.97
2018-12-05T01:28:47.789Z,5.27
2018-12-05T01:31:27.111Z,5.60
2018-12-05T01:34:06.821Z,4.17
2018-12-05T01:36:46.111Z,4.43
2018-12-05T01:39:24.995Z,5.83
2018-12-05T01:42:04.042Z,5.53
2018-12-05T01:44:42.955Z,4.03
2018-12-05T01:47:22.038Z,6.23
2018-12-05T01:50:00.685Z,5.50
2018-12-05T01:52:40.191Z,6.47
2018-12-05T01:55:20.428Z,6.30
2018-12-05T01:57:59.260Z,4.37
2018-12-05T02:00:37.938Z,6.27
2018-12-05T02:03:16.927Z,5.30
2018-12-05T02:05:55.465Z,3.90
2018-12-05T02:08:33.834Z,5.53
2018-12-05T02:11:12.544Z,6.10
2018-12-05T02:13:51.376Z,5.23
2018-12-05T02:16:31.180Z,5.83
2018-12-05T02:19:09.836Z,5.80
2018-12-05T02:21:48.648Z,5.37
2018-12-05T02:24:27.294Z,4.03
2018-12-05T02:27:06.192Z,5.40
2018-12-05T02:29:49.058Z,5.73
2018-12-05T02:32:27.740Z,7.67
2018-12-05T02:35:09.327Z,5.00
2018-12-05T02:37:50.128Z,3.70
2018-12-05T02:40:29.096Z,5.13
2018-12-05T02:43:09.547Z,5.37
2018-12-05T02:45:48.277Z,4.80
2018-12-05T02:48:27.347Z,4.87
2018-12-05T02:51:06.363Z,5.00
2018-12-05T02:53:46.074Z,5.63
2018-12-05T02:56:25.372Z,4.20
2018-12-05T02:59:05.445Z,5.83
2018-12-05T03:01:44.466Z,5.20
2018-12-05T03:04:23.620Z,6.00
2018-12-05T03:07:02.537Z,5.57
2018-12-05T03:09:41.546Z,4.80
2018-12-05T03:12:21.077Z,9.17
2018-12-05T03:15:00.155Z,4.77
2018-12-05T03:17:39.893Z,5.80
2018-12-05T03:20:18.779Z,5.63
2018-12-05T03:22:57.874Z,5.53
2018-12-05T03:25:38.172Z,4.50
2018-12-05T03:28:17.167Z,5.47
2018-12-05T03:30:57.868Z,4.87
2018-12-05T03:33:37.886Z,5.27
2018-12-05T03:36:17.797Z,5.43
2018-12-05T03:38:57.753Z,5.07
2018-12-05T03:41:36.781Z,5.03
2018-12-05T03:44:17.739Z,5.83
2018-12-05T03:46:57.100Z,5.30
2018-12-05T03:49:36.222Z,5.23
2018-12-05T03:52:15.012Z,5.97
2018-12-05T03:54:55.542Z,6.17
2018-12-05T03:57:34.488Z,7.83
2018-12-05T04:00:13.441Z,6.63
2018-12-05T04:02:52.365Z,5.30
2018-12-05T04:05:32.536Z,5.13
2018-12-05T04:08:13.694Z,3.70
2018-12-05T04:10:52.532Z,4.27
2018-12-05T04:13:31.413Z,4.17
2018-12-05T04:16:11.923Z,4.80
2018-12-05T04:18:52.196Z,4.27
2018-12-05T04:21:31.648Z,3.63
2018-12-05T04:24:11.409Z,4.33
2018-12-05T04:26:50.317Z,4.97
2018-12-05T04:29:29.203Z,4.30
2018-12-05T04:32:08.180Z,5.33
2018-12-05T04:34:48.079Z,5.33
2018-12-05T04:37:27.138Z,4.00
2018-12-05T04:40:06.168Z,3.70
2018-12-05T04:42:46.649Z,3.90
2018-12-05T04:45:25.989Z,4.03
2018-12-05T04:48:04.969Z,3.70
2018-12-05T04:50:43.829Z,4.87
2018-12-05T04:59:56.995Z,5.63
2018-12-05T05:02:38.079Z,4.50
2018-12-05T05:05:17.336Z,4.77
2018-12-05T05:07:56.242Z,3.57
2018-12-05T05:10:35.308Z,4.17
2018-12-05T05:13:16.537Z,4.00
2018-12-05T05:15:55.680Z,3.87
2018-12-05T05:18:34.599Z,4.10
2018-12-05T05:21:13.569Z,4.00
2018-12-05T05:23:52.431Z,3.37
2018-12-05T05:26:31.475Z,3.70
2018-12-05T05:29:10.565Z,5.13
2018-12-05T05:31:49.651Z,4.07
2018-12-05T05:34:29.772Z,4.00
2018-12-05T05:37:09.920Z,4.03
2018-12-05T05:39:49.653Z,3.77
2018-12-05T05:42:29.375Z,5.83
2018-12-05T05:45:08.000Z,3.50
2018-12-05T05:47:46.849Z,6.73
2018-12-05T05:50:27.073Z,4.03
2018-12-05T05:53:05.831Z,5.17
2018-12-05T05:55:45.534Z,3.93
2018-12-05T05:58:24.575Z,3.90
2018-12-05T06:01:05.984Z,4.20
2018-12-05T06:03:44.962Z,4.50
2018-12-05T06:06:24.077Z,4.07
2018-12-05T06:09:03.234Z,4.13
2018-12-05T06:11:42.397Z,4.67
2018-12-05T06:14:21.244Z,3.60
2018-12-05T06:17:00.072Z,3.83
2018-12-05T06:19:39.017Z,3.70
2018-12-05T06:22:19.027Z,4.87
2018-12-05T06:24:57.706Z,3.97
2018-12-05T06:27:36.709Z,5.10
2018-12-05T06:30:15.913Z,4.57
2018-12-05T06:32:55.218Z,4.50
2018-12-05T06:35:34.212Z,4.27
2018-12-05T06:38:12.963Z,4.53
2018-12-05T06:40:51.665Z,3.30
2018-12-05T06:43:30.389Z,3.57
2018-12-05T06:46:09.355Z,4.23
2018-12-05T06:48:48.051Z,3.37
2018-12-05T06:51:26.813Z,3.47
2018-12-05T06:54:06.353Z,4.10
2018-12-05T06:56:46.966Z,3.60
2018-12-05T06:59:27.123Z,3.17
2018-12-05T07:02:06.020Z,4.27
2018-12-05T07:04:44.688Z,4.13
2018-12-05T07:07:26.040Z,4.83
2018-12-05T07:10:08.872Z,4.33
2018-12-05T07:12:47.806Z,3.87
2018-12-05T07:15:26.733Z,4.10
2018-12-05T07:18:06.271Z,4.20
2018-12-05T07:20:46.724Z,3.73
2018-12-05T07:23:25.948Z,4.17
2018-12-05T07:26:05.234Z,4.73
2018-12-05T07:28:44.608Z,3.73
2018-12-05T07:31:24.616Z,4.27
2018-12-05T07:34:04.947Z,4.37
2018-12-05T07:36:44.301Z,4.10
2018-12-05T07:39:24.713Z,4.10
2018-12-05T07:42:04.576Z,4.03
2018-12-05T07:44:44.240Z,3.73
2018-12-05T07:47:24.461Z,3.83
2018-12-05T07:50:06.279Z,4.23
2018-12-05T07:56:54.680Z,4.50
2018-12-05T08:02:11.449Z,4.33
2018-12-05T08:04:51.263Z,3.70
2018-12-05T08:07:30.680Z,4.23
2018-12-05T08:10:13.909Z,4.60
2018-12-05T08:12:54.107Z,3.57
2018-12-05T08:15:36.143Z,4.63
2018-12-05T08:18:16.163Z,4.40
2018-12-05T08:20:56.573Z,4.17
2018-12-05T08:23:36.605Z,4.67
2018-12-05T08:26:16.734Z,4.90
2018-12-05T08:28:57.676Z,4.63
2018-12-05T08:31:39.025Z,4.83
2018-12-05T08:34:21.234Z,4.83
2018-12-05T08:37:01.531Z,4.77
2018-12-05T08:39:45.596Z,4.27
2018-12-05T08:42:28.832Z,6.23
2018-12-05T08:45:10.390Z,5.60
2018-12-05T08:47:51.019Z,5.40
2018-12-05T08:50:34.964Z,4.37
2018-12-05T08:53:15.228Z,5.27
2018-12-05T08:55:57.395Z,4.53
2018-12-05T08:58:40.933Z,5.00
2018-12-05T09:01:24.452Z,5.30
2018-12-05T09:04:08.300Z,4.73
2018-12-05T09:06:49.094Z,4.57
2018-12-05T09:09:30.349Z,4.57
2018-12-05T09:12:12.367Z,5.73
2018-12-05T09:15:09.145Z,5.03
2018-12-05T09:17:48.334Z,5.87
2018-12-05T09:20:28.013Z,5.47
2018-12-05T09:23:07.489Z,5.47
2018-12-05T09:25:47.217Z,5.40
2018-12-05T09:28:26.556Z,5.83
2018-12-05T09:31:07.629Z,5.33
2018-12-05T09:33:49.494Z,5.33
2018-12-05T09:36:29.145Z,5.07
2018-12-05T09:39:11.454Z,6.30
2018-12-05T09:41:51.496Z,5.40
2018-12-05T09:44:30.255Z,4.97
2018-12-05T09:47:15.854Z,5.60
2018-12-05T09:49:55.998Z,5.40
2018-12-05T09:52:37.744Z,5.07
2018-12-05T09:55:17.467Z,6.40
2018-12-05T09:57:57.961Z,6.33
2018-12-05T10:00:39.147Z,6.47
2018-12-05T10:03:22.239Z,5.23
2018-12-05T10:06:02.303Z,7.13
2018-12-05T10:08:47.820Z,5.67
2018-12-05T10:11:27.443Z,6.40
2018-12-05T10:14:06.164Z,6.07
2018-12-05T10:16:45.177Z,5.73
2018-12-05T10:19:24.850Z,5.50
2018-12-05T10:22:04.343Z,5.47
2018-12-05T10:24:44.543Z,7.23
2018-12-05T10:27:25.881Z,5.83
2018-12-05T10:30:08.134Z,5.37
2018-12-05T10:32:57.219Z,6.10
2018-12-05T10:35:37.567Z,6.10
2018-12-05T10:38:17.489Z,6.93
2018-12-05T10:40:57.301Z,6.13
2018-12-05T10:43:37.250Z,6.67
2018-12-05T10:46:20.123Z,8.00
2018-12-05T10:48:59.926Z,6.00
2018-12-05T10:51:41.697Z,6.23
2018-12-05T10:54:23.085Z,5.27
2018-12-05T10:57:02.796Z,6.10
2018-12-05T10:59:42.419Z,6.00
2018-12-05T11:02:24.923Z,7.43
2018-12-05T11:05:09.082Z,5.93
2018-12-05T11:07:52.365Z,5.93
2018-12-05T11:10:36.009Z,6.53
2018-12-05T11:14:17.659Z,6.10
2018-12-05T11:17:01.631Z,6.30
2018-12-05T11:20:49.132Z,5.70
2018-12-05T11:23:37.237Z,5.50
2018-12-05T11:26:22.476Z,6.20
2018-12-05T11:29:03.843Z,6.07
2018-12-05T11:31:43.649Z,6.17
2018-12-05T11:34:23.708Z,6.30
2018-12-05T11:37:04.302Z,5.23
2018-12-05T11:39:46.157Z,6.30
2018-12-05T11:42:25.452Z,8.37
2018-12-05T11:45:14.857Z,6.60
2018-12-05T11:48:00.200Z,6.37
2018-12-05T11:53:35.494Z,5.83
2018-12-05T12:00:02.981Z,7.17
2018-12-05T12:02:43.481Z,5.90
2018-12-05T12:05:22.551Z,5.73
2018-12-05T12:08:01.912Z,5.77
2018-12-05T12:10:43.372Z,6.27
2018-12-05T12:13:23.233Z,6.93
2018-12-05T12:16:04.402Z,7.00
2018-12-05T12:18:46.887Z,6.50
2018-12-05T12:21:27.971Z,6.60
2018-12-05T12:24:07.542Z,6.40
2018-12-05T12:26:48.124Z,6.47
2018-12-05T12:29:31.627Z,6.83
2018-12-05T12:32:13.189Z,6.97
2018-12-05T12:34:54.706Z,6.20
2018-12-05T12:37:34.889Z,5.87
2018-12-05T12:40:16.280Z,6.33
2018-12-05T12:42:56.552Z,6.53
2018-12-05T12:45:37.242Z,6.30
2018-12-05T12:48:16.703Z,6.80
2018-12-05T12:50:57.201Z,7.80
2018-12-05T12:53:37.048Z,6.63
2018-12-05T12:56:18.167Z,6.43
2018-12-05T12:59:00.704Z,7.03
2018-12-05T13:01:39.939Z,7.43
2018-12-05T13:04:21.250Z,7.83
2018-12-05T13:07:00.984Z,8.27
2018-12-05T13:09:41.654Z,7.73
2018-12-05T13:12:25.687Z,10.03
2018-12-05T13:18:07.549Z,13.77
2018-12-05T13:20:46.792Z,18.83
2018-12-05T13:23:27.042Z,20.33
2018-12-05T13:26:06.577Z,19.50
2018-12-05T13:28:47.631Z,19.20
2018-12-05T13:31:30.217Z,18.17
2018-12-05T13:34:10.500Z,16.90
2018-12-05T13:36:53.986Z,18.17
2018-12-05T13:39:33.669Z,18.20
2018-12-05T13:42:12.625Z,18.07
2018-12-05T13:44:52.397Z,19.33
2018-12-05T13:47:32.085Z,18.47
2018-12-05T13:50:11.766Z,18.33
2018-12-05T13:52:52.787Z,18.93
2018-12-05T13:55:31.961Z,18.63
2018-12-05T13:58:11.132Z,18.97
2018-12-05T14:00:55.938Z,18.80
2018-12-05T14:03:34.988Z,19.07
2018-12-05T14:06:15.789Z,21.37
2018-12-05T14:08:55.459Z,19.77
2018-12-05T14:11:34.535Z,18.67
2018-12-05T14:14:14.105Z,18.97
2018-12-05T14:16:53.633Z,19.20
2018-12-05T14:19:33.510Z,19.40
2018-12-05T14:22:13.966Z,20.50
2018-12-05T14:24:54.559Z,19.60
2018-12-05T14:27:33.888Z,19.17
2018-12-05T14:30:15.173Z,20.13
2018-12-05T14:32:57.031Z,21.40
2018-12-05T14:35:36.170Z,19.97
2018-12-05T14:38:15.244Z,22.40
2018-12-05T14:40:54.891Z,21.23
2018-12-05T14:43:34.129Z,20.80
2018-12-05T14:46:13.424Z,21.73
2018-12-05T14:48:52.857Z,20.27
2018-12-05T14:51:32.085Z,21.40
2018-12-05T14:54:11.519Z,21.47
2018-12-05T14:56:51.119Z,19.30
2018-12-05T14:59:30.183Z,19.23
2018-12-05T15:02:09.374Z,20.17
2018-12-05T15:04:48.501Z,20.70
2018-12-05T15:07:30.655Z,21.40
2018-12-05T15:10:10.284Z,20.10
2018-12-05T15:12:53.541Z,18.80
2018-12-05T15:18:40.688Z,19.60
2018-12-05T15:21:20.606Z,20.00
2018-12-05T15:23:59.653Z,19.57
2018-12-05T15:26:39.063Z,20.67
2018-12-05T15:29:18.622Z,17.63
2018-12-05T15:32:05.110Z,17.57
2018-12-05T15:34:45.459Z,17.27
2018-12-05T15:37:24.527Z,17.20
2018-12-05T15:40:03.911Z,16.70
2018-12-05T15:42:47.565Z,17.30
2018-12-05T15:45:26.531Z,14.30
2018-12-05T15:51:03.883Z,16.03
2018-12-05T15:53:43.671Z,14.87
2018-12-05T15:56:23.254Z,14.10
2018-12-05T15:59:02.171Z,14.73
2018-12-05T16:01:43.872Z,13.27
2018-12-05T16:04:23.049Z,15.33
2018-12-05T16:07:02.288Z,13.23
2018-12-05T16:09:42.649Z,12.43
2018-12-05T16:12:21.794Z,14.60
2018-12-05T16:15:01.236Z,14.20
2018-12-05T16:17:40.454Z,14.37
2018-12-05T16:20:19.603Z,13.13
2018-12-05T16:22:59.218Z,13.43
2018-12-05T16:25:39.803Z,13.37
2018-12-05T16:28:18.706Z,12.97
2018-12-05T16:31:01.737Z,13.20
2018-12-05T16:33:40.729Z,14.67
2018-12-05T16:36:19.775Z,13.20
2018-12-05T16:38:58.943Z,12.60
2018-12-05T16:41:38.297Z,12.80
2018-12-05T16:44:17.716Z,13.57
2018-12-05T16:46:56.458Z,13.00
2018-12-05T16:49:40.358Z,13.67
2018-12-05T16:52:21.928Z,14.07
2018-12-05T16:55:01.020Z,12.53
2018-12-05T16:57:41.993Z,13.57
2018-12-05T17:00:34.497Z,13.23
2018-12-05T17:03:17.591Z,15.63
2018-12-05T17:08:48.325Z,12.17
2018-12-05T17:11:27.860Z,13.00
2018-12-05T17:14:07.585Z,12.83
2018-12-05T17:16:47.538Z,13.03
2018-12-05T17:19:27.075Z,11.93
2018-12-05T17:22:06.326Z,11.30
2018-12-05T17:24:47.592Z,10.87
2018-12-05T17:27:27.177Z,9.97
2018-12-05T17:30:06.656Z,9.57
2018-12-05T17:32:46.214Z,10.93
2018-12-05T17:35:30.530Z,10.30
2018-12-05T17:38:11.270Z,11.33
2018-12-05T17:41:03.667Z,10.50
2018-12-05T17:43:43.675Z,10.60
2018-12-05T17:46:25.060Z,11.10
2018-12-05T17:49:04.496Z,9.57
2018-12-05T17:51:46.056Z,8.60
2018-12-05T17:54:25.626Z,9.00
2018-12-05T17:57:07.567Z,8.83
2018-12-05T17:59:46.655Z,9.13
2018-12-05T18:02:26.218Z,10.47
2018-12-05T18:05:05.645Z,9.00
2018-12-05T18:07:46.401Z,9.00
2018-12-05T18:10:26.697Z,7.90
2018-12-05T18:13:06.139Z,7.80
2018-12-05T18:15:48.306Z,8.80
2018-12-05T18:18:27.373Z,8.07
2018-12-05T18:21:10.639Z,9.33
2018-12-05T18:23:50.753Z,8.27
2018-12-05T18:26:30.825Z,8.10
2018-12-05T18:29:10.472Z,9.43
2018-12-05T18:31:50.244Z,9.43
2018-12-05T18:34:29.904Z,10.20
2018-12-05T18:37:18.890Z,10.47
2018-12-05T18:39:58.390Z,9.53
2018-12-05T18:42:39.443Z,10.03
2018-12-05T18:45:35.292Z,10.50
2018-12-05T18:48:28.632Z,10.87
2018-12-05T18:51:08.485Z,10.03
2018-12-05T18:56:37.517Z,10.67
2018-12-05T18:59:17.380Z,10.00
2018-12-05T19:01:58.679Z,9.77
2018-12-05T19:04:49.133Z,11.73
2018-12-05T19:07:39.111Z,10.73
2018-12-05T19:10:19.050Z,10.10
2018-12-05T19:13:00.685Z,10.10
2018-12-05T19:15:45.576Z,10.50
2018-12-05T19:18:27.411Z,9.33
2018-12-05T19:21:06.615Z,8.03
2018-12-05T19:23:49.769Z,10.03
2018-12-05T19:26:30.452Z,10.10
2018-12-05T19:29:10.034Z,9.33
2018-12-05T19:31:49.620Z,9.97
2018-12-05T19:34:29.167Z,8.90
2018-12-05T19:37:08.595Z,8.27
2018-12-05T19:39:48.741Z,8.33
2018-12-05T19:42:28.082Z,10.47
2018-12-05T19:45:10.137Z,8.03
2018-12-05T19:47:49.743Z,8.63
2018-12-05T19:50:29.548Z,8.30
2018-12-05T19:53:09.040Z,8.53
2018-12-05T19:55:49.631Z,9.57
2018-12-05T19:58:29.005Z,9.03
2018-12-05T20:01:08.703Z,8.80
2018-12-05T20:03:49.406Z,8.70
2018-12-05T20:06:29.344Z,7.70
2018-12-05T20:09:11.144Z,8.13
2018-12-05T20:11:50.545Z,9.20
2018-12-05T20:14:36.125Z,9.03
2018-12-05T20:17:19.740Z,8.50
2018-12-05T20:20:00.380Z,8.40
2018-12-05T20:22:42.896Z,8.57
2018-12-05T20:25:22.211Z,8.83
2018-12-05T20:28:01.624Z,8.57
2018-12-05T20:30:41.354Z,7.97
2018-12-05T20:33:21.804Z,9.80
2018-12-05T20:36:01.953Z,7.23
2018-12-05T20:38:45.257Z,7.37
2018-12-05T20:41:31.104Z,8.60
2018-12-05T20:44:08.091Z,7.33
2018-12-05T20:46:51.791Z,9.07
2018-12-05T20:49:32.003Z,8.23
2018-12-05T20:52:11.966Z,7.47
2018-12-05T20:54:54.787Z,7.30
2018-12-05T20:57:34.971Z,8.37
2018-12-05T21:00:15.057Z,8.47
2018-12-05T21:02:55.554Z,9.40
2018-12-05T21:05:35.079Z,8.90
2018-12-05T21:08:20.005Z,10.17
2018-12-05T21:10:59.594Z,9.40
2018-12-05T21:13:39.206Z,9.37
2018-12-05T21:16:19.133Z,9.73
2018-12-05T21:18:58.799Z,11.22
2018-12-05T21:21:38.275Z,11.07
2018-12-05T21:24:17.841Z,10.57
2018-12-05T21:26:58.054Z,11.70
2018-12-05T21:29:43.085Z,10.80
2018-12-05T21:32:22.791Z,13.67
2018-12-05T21:35:02.883Z,11.20
2018-12-05T21:37:43.681Z,12.47
2018-12-05T21:40:28.821Z,11.83
2018-12-05T21:43:09.343Z,12.40
2018-12-05T21:45:49.463Z,14.80
2018-12-05T21:48:28.653Z,15.37
2018-12-05T21:51:12.231Z,16.60
2018-12-05T21:53:51.850Z,16.50
2018-12-05T21:56:31.753Z,16.73
2018-12-05T21:59:11.433Z,16.37
2018-12-05T22:02:01.315Z,16.03
2018-12-05T22:04:41.063Z,15.90
2018-12-05T22:07:20.376Z,14.63
2018-12-05T22:10:00.830Z,13.60
2018-12-05T22:12:41.338Z,12.77
2018-12-05T22:15:25.099Z,14.83
2018-12-05T22:18:05.589Z,15.30
2018-12-05T22:20:48.780Z,16.80
2018-12-05T22:23:28.433Z,15.27
2018-12-05T22:26:10.810Z,14.23
2018-12-05T22:28:51.946Z,15.33
2018-12-05T22:31:32.387Z,14.77
2018-12-05T22:34:11.763Z,16.67
2018-12-05T22:36:55.266Z,15.40
2018-12-05T22:39:35.100Z,15.10
2018-12-05T22:42:23.989Z,16.13
2018-12-05T22:45:05.855Z,15.97
2018-12-05T22:47:46.335Z,16.50
2018-12-05T22:50:28.572Z,16.30
2018-12-05T22:53:12.598Z,13.57
2018-12-05T22:55:51.846Z,17.07
2018-12-05T22:58:31.825Z,15.80
2018-12-05T23:01:20.822Z,15.77
2018-12-05T23:04:02.902Z,13.43
2018-12-05T23:06:42.611Z,13.30
2018-12-05T23:09:23.600Z,14.93
2018-12-05T23:12:03.709Z,13.77
2018-12-05T23:18:26.055Z,13.37
2018-12-05T23:21:05.753Z,12.47
2018-12-05T23:23:47.337Z,10.63
2018-12-05T23:26:26.454Z,10.20
2018-12-05T23:29:05.864Z,11.53
2018-12-05T23:31:45.661Z,11.23
2018-12-05T23:34:25.757Z,11.57
2018-12-05T23:37:04.884Z,9.97
2018-12-05T23:39:46.104Z,10.93
2018-12-05T23:42:25.265Z,10.67
2018-12-05T23:45:04.048Z,9.07
2018-12-05T23:47:43.262Z,8.70
2018-12-05T23:50:22.609Z,10.07
2018-12-05T23:53:06.856Z,10.37
2018-12-05T23:55:46.325Z,8.23
2018-12-05T23:58:26.764Z,9.50
